createdAt,value
2022-10-19T00:00:17.818Z,14.28
2022-10-19T00:01:17.787Z,14.25
2022-10-19T00:02:17.925Z,14.25
2022-10-19T00:03:20.760Z,14.25
2022-10-19T00:04:17.898Z,14.25
2022-10-19T00:05:17.736Z,14.23
2022-10-19T00:06:18.147Z,14.23
2022-10-19T00:07:17.726Z,14.30
2022-10-19T00:08:17.798Z,14.32
2022-10-19T00:09:17.657Z,14.26
2022-10-19T00:10:17.736Z,14.25
2022-10-19T00:11:17.757Z,14.22
2022-10-19T00:12:17.727Z,14.20
2022-10-19T00:13:17.709Z,14.13
2022-10-19T00:14:17.728Z,14.10
2022-10-19T00:15:17.758Z,14.05
2022-10-19T00:16:17.617Z,14.05
2022-10-19T00:17:17.727Z,14.07
2022-10-19T00:18:17.610Z,14.07
2022-10-19T00:19:17.676Z,14.04
2022-10-19T00:20:17.887Z,14.03
2022-10-19T00:21:17.837Z,14.04
2022-10-19T00:22:17.526Z,14.00
2022-10-19T00:23:17.666Z,13.97
2022-10-19T00:24:17.557Z,13.96
2022-10-19T00:25:17.677Z,13.92
2022-10-19T00:26:16.869Z,13.90
2022-10-19T00:27:18.427Z,13.89
2022-10-19T00:28:17.878Z,13.88
2022-10-19T00:29:17.597Z,13.80
2022-10-19T00:30:17.558Z,13.80
2022-10-19T00:31:17.754Z,13.78
2022-10-19T00:32:17.626Z,13.80
2022-10-19T00:33:17.438Z,13.83
2022-10-19T00:34:17.727Z,13.88
2022-10-19T00:35:17.416Z,13.90
2022-10-19T00:36:17.907Z,13.93
2022-10-19T00:37:17.506Z,13.93
2022-10-19T00:38:17.567Z,13.96
2022-10-19T00:39:17.546Z,14.00
2022-10-19T00:40:17.529Z,14.03
2022-10-19T00:41:17.437Z,14.04
2022-10-19T00:42:17.497Z,14.07
2022-10-19T00:43:17.437Z,14.07
2022-10-19T00:44:17.459Z,14.10
2022-10-19T00:45:17.396Z,14.10
2022-10-19T00:46:17.257Z,14.10
2022-10-19T00:47:17.386Z,14.14
2022-10-19T00:48:17.217Z,14.13
2022-10-19T00:49:17.527Z,14.13
2022-10-19T00:50:17.327Z,14.10
2022-10-19T00:51:17.438Z,14.08
2022-10-19T00:52:17.258Z,14.05
2022-10-19T00:53:17.558Z,13.96
2022-10-19T00:54:17.186Z,13.96
2022-10-19T00:55:17.486Z,13.92
2022-10-19T00:56:17.266Z,13.86
2022-10-19T00:57:17.436Z,13.80
2022-10-19T00:58:17.236Z,13.75
2022-10-19T00:59:17.357Z,13.64
2022-10-19T01:00:17.285Z,13.59
2022-10-19T01:01:17.056Z,13.59
2022-10-19T01:02:17.395Z,13.59
2022-10-19T01:03:17.087Z,13.57
2022-10-19T01:04:17.228Z,13.53
2022-10-19T01:05:17.076Z,13.41
2022-10-19T01:06:17.247Z,13.35
2022-10-19T01:07:17.100Z,13.30
2022-10-19T01:08:17.186Z,13.19
2022-10-19T01:09:17.227Z,13.18
2022-10-19T01:10:17.256Z,13.16
2022-10-19T01:11:17.118Z,13.16
2022-10-19T01:12:17.166Z,13.21
2022-10-19T01:13:17.116Z,13.19
2022-10-19T01:14:17.186Z,13.22
2022-10-19T01:15:17.079Z,13.27
2022-10-19T01:16:16.907Z,13.27
2022-10-19T01:17:18.028Z,13.31
2022-10-19T01:18:17.027Z,13.27
2022-10-19T01:19:17.035Z,13.12
2022-10-19T01:20:16.918Z,13.05
2022-10-19T01:21:17.046Z,13.05
2022-10-19T01:22:16.908Z,13.05
2022-10-19T01:23:17.056Z,13.00
2022-10-19T01:24:16.869Z,13.05
2022-10-19T01:25:16.978Z,13.00
2022-10-19T01:26:16.927Z,12.93
2022-10-19T01:27:16.980Z,12.88
2022-10-19T01:28:17.077Z,12.82
2022-10-19T01:29:17.038Z,12.87
2022-10-19T01:30:17.107Z,12.88
2022-10-19T01:31:17.017Z,12.85
2022-10-19T01:32:16.948Z,12.78
2022-10-19T01:33:16.727Z,12.72
2022-10-19T01:34:16.887Z,12.69
2022-10-19T01:35:16.736Z,12.73
2022-10-19T01:36:16.976Z,12.73
2022-10-19T01:37:16.677Z,12.71
2022-10-19T01:38:16.927Z,12.65
2022-10-19T01:39:16.926Z,12.58
2022-10-19T01:40:16.917Z,12.47
2022-10-19T01:41:17.536Z,12.40
2022-10-19T01:42:16.856Z,12.33
2022-10-19T01:43:16.788Z,12.30
2022-10-19T01:44:16.811Z,12.27
2022-10-19T01:45:16.796Z,12.21
2022-10-19T01:46:16.767Z,12.14
2022-10-19T01:47:16.737Z,12.10
2022-10-19T01:48:16.558Z,12.05
2022-10-19T01:49:16.811Z,12.02
2022-10-19T01:50:16.696Z,11.96
2022-10-19T01:51:16.898Z,11.91
2022-10-19T01:52:16.538Z,11.90
2022-10-19T01:53:16.688Z,11.88
2022-10-19T01:54:16.645Z,11.97
2022-10-19T01:55:16.706Z,11.99
2022-10-19T01:56:16.706Z,11.99
2022-10-19T01:57:16.667Z,11.96
2022-10-19T01:58:16.597Z,11.99
2022-10-19T01:59:16.646Z,12.02
2022-10-19T02:00:16.596Z,12.03
2022-10-19T02:01:16.679Z,12.02
2022-10-19T02:02:16.529Z,12.05
2022-10-19T02:03:16.376Z,11.97
2022-10-19T02:04:16.570Z,11.91
2022-10-19T02:05:16.409Z,11.91
2022-10-19T02:06:16.837Z,11.96
2022-10-19T02:07:16.437Z,12.05
2022-10-19T02:08:16.540Z,12.05
2022-10-19T02:09:16.427Z,12.10
2022-10-19T02:10:16.589Z,12.13
2022-10-19T02:11:16.566Z,12.20
2022-10-19T02:12:16.636Z,12.27
2022-10-19T02:13:16.387Z,12.38
2022-10-19T02:14:16.669Z,12.50
2022-10-19T02:15:16.427Z,12.60
2022-10-19T02:16:16.449Z,12.69
2022-10-19T02:17:16.528Z,12.76
2022-10-19T02:18:16.288Z,12.79
2022-10-19T02:19:16.426Z,12.80
2022-10-19T02:20:16.232Z,12.82
2022-10-19T02:21:16.397Z,12.90
2022-10-19T02:22:16.316Z,12.94
2022-10-19T02:23:16.397Z,13.01
2022-10-19T02:24:16.258Z,13.03
2022-10-19T02:25:16.416Z,13.06
2022-10-19T02:26:16.297Z,13.08
2022-10-19T02:27:16.408Z,13.11
2022-10-19T02:28:16.475Z,13.13
2022-10-19T02:29:16.466Z,13.18
2022-10-19T02:30:15.517Z,13.21
2022-10-19T02:31:16.316Z,13.22
2022-10-19T02:32:16.266Z,13.26
2022-10-19T02:33:16.166Z,13.30
2022-10-19T02:34:16.288Z,13.33
2022-10-19T02:35:16.085Z,13.33
2022-10-19T02:36:16.287Z,13.33
2022-10-19T02:37:15.519Z,13.39
2022-10-19T02:38:16.236Z,13.45
2022-10-19T02:39:16.147Z,13.41
2022-10-19T02:40:16.296Z,13.49
2022-10-19T02:41:16.056Z,13.53
2022-10-19T02:42:15.377Z,13.53
2022-10-19T02:43:16.126Z,13.53
2022-10-19T02:44:16.219Z,13.55
2022-10-19T02:45:16.139Z,13.50
2022-10-19T02:46:16.156Z,13.45
2022-10-19T02:47:16.207Z,13.31
2022-10-19T02:48:16.157Z,13.26
2022-10-19T02:49:16.157Z,13.15
2022-10-19T02:50:15.926Z,13.08
2022-10-19T02:51:16.166Z,13.00
2022-10-19T02:52:15.950Z,13.01
2022-10-19T02:53:16.087Z,13.00
2022-10-19T02:54:15.928Z,13.00
2022-10-19T02:55:16.027Z,12.97
2022-10-19T02:56:15.907Z,12.93
2022-10-19T02:57:16.101Z,12.94
2022-10-19T02:58:16.017Z,12.94
2022-10-19T02:59:15.997Z,12.97
2022-10-19T03:00:16.117Z,13.00
2022-10-19T03:01:16.107Z,13.03
2022-10-19T03:02:15.928Z,13.01
2022-10-19T03:03:16.027Z,13.05
2022-10-19T03:04:15.949Z,13.09
2022-10-19T03:05:15.857Z,13.12
2022-10-19T03:06:15.946Z,13.09
2022-10-19T03:07:15.768Z,13.09
2022-10-19T03:08:15.917Z,13.08
2022-10-19T03:09:15.937Z,13.11
2022-10-19T03:10:15.917Z,13.13
2022-10-19T03:11:15.806Z,13.19
2022-10-19T03:12:16.116Z,13.19
2022-10-19T03:13:15.796Z,13.21
2022-10-19T03:14:15.955Z,13.22
2022-10-19T03:15:15.797Z,13.24
2022-10-19T03:16:15.947Z,13.22
2022-10-19T03:17:15.757Z,13.24
2022-10-19T03:18:15.856Z,13.24
2022-10-19T03:19:15.817Z,13.22
2022-10-19T03:20:15.717Z,13.19
2022-10-19T03:21:15.886Z,13.18
2022-10-19T03:22:15.626Z,13.22
2022-10-19T03:23:15.833Z,13.22
2022-10-19T03:24:15.627Z,13.26
2022-10-19T03:25:15.937Z,13.24
2022-10-19T03:26:15.597Z,13.27
2022-10-19T03:27:15.718Z,13.26
2022-10-19T03:28:15.627Z,13.24
2022-10-19T03:29:15.767Z,13.21
2022-10-19T03:30:15.745Z,13.18
2022-10-19T03:31:15.788Z,13.18
2022-10-19T03:32:15.657Z,13.19
2022-10-19T03:33:15.810Z,13.18
2022-10-19T03:34:15.626Z,13.18
2022-10-19T03:35:15.450Z,13.13
2022-10-19T03:36:15.727Z,13.05
2022-10-19T03:37:15.478Z,13.00
2022-10-19T03:38:14.806Z,12.96
2022-10-19T03:39:15.567Z,12.94
2022-10-19T03:40:15.639Z,12.97
2022-10-19T03:41:15.447Z,12.98
2022-10-19T03:42:15.650Z,12.98
2022-10-19T03:43:15.626Z,12.97
2022-10-19T03:44:15.579Z,12.91
2022-10-19T03:45:15.446Z,12.94
2022-10-19T03:46:15.600Z,12.93
2022-10-19T03:47:15.426Z,12.91
2022-10-19T03:48:15.577Z,12.88
2022-10-19T03:49:15.486Z,12.90
2022-10-19T03:50:14.696Z,12.85
2022-10-19T03:51:15.866Z,12.83
2022-10-19T03:52:15.307Z,12.83
2022-10-19T03:53:15.577Z,12.82
2022-10-19T03:54:15.318Z,12.79
2022-10-19T03:55:15.436Z,12.78
2022-10-19T03:56:15.330Z,12.79
2022-10-19T03:57:15.436Z,12.78
2022-10-19T03:58:15.256Z,12.79
2022-10-19T03:59:15.486Z,12.73
2022-10-19T04:00:16.245Z,12.76
2022-10-19T04:01:15.562Z,12.76
2022-10-19T04:02:15.307Z,12.73
2022-10-19T04:03:15.368Z,12.73
2022-10-19T04:04:15.357Z,12.76
2022-10-19T04:05:15.317Z,12.75
2022-10-19T04:06:16.929Z,12.69
2022-10-19T04:07:15.226Z,12.61
2022-10-19T04:08:15.260Z,12.61
2022-10-19T04:09:14.537Z,12.63
2022-10-19T04:10:15.298Z,12.63
2022-10-19T04:11:15.227Z,12.55
2022-10-19T04:12:15.308Z,12.54
2022-10-19T04:13:15.117Z,12.55
2022-10-19T04:14:22.867Z,12.55
2022-10-19T04:15:15.226Z,12.57
2022-10-19T04:16:15.237Z,12.60
2022-10-19T04:17:15.098Z,12.68
2022-10-19T04:18:15.306Z,12.72
2022-10-19T04:19:15.188Z,12.73
2022-10-19T04:20:15.346Z,12.73
2022-10-19T04:21:15.247Z,12.78
2022-10-19T04:22:15.007Z,12.75
2022-10-19T04:24:15.048Z,12.78
2022-10-19T04:25:15.289Z,12.78
2022-10-19T04:26:15.091Z,12.73
2022-10-19T04:27:15.117Z,12.64
2022-10-19T04:28:15.057Z,12.58
2022-10-19T04:29:15.233Z,12.65
2022-10-19T04:30:14.997Z,12.68
2022-10-19T04:31:15.128Z,12.72
2022-10-19T04:32:15.007Z,12.75
2022-10-19T04:33:15.077Z,12.72
2022-10-19T04:34:15.106Z,12.72
2022-10-19T04:35:15.227Z,12.72
2022-10-19T04:36:14.266Z,12.73
2022-10-19T04:37:14.749Z,12.72
2022-10-19T04:38:15.046Z,12.71
2022-10-19T04:39:14.876Z,12.71
2022-10-19T04:40:15.031Z,12.68
2022-10-19T04:41:15.997Z,12.64
2022-10-19T04:42:15.067Z,12.57
2022-10-19T04:43:14.827Z,12.53
2022-10-19T04:44:15.023Z,12.51
2022-10-19T04:45:14.107Z,12.53
2022-10-19T04:46:14.969Z,12.51
2022-10-19T04:47:14.796Z,12.47
2022-10-19T04:48:15.307Z,12.46
2022-10-19T04:49:17.836Z,12.45
2022-10-19T04:50:14.956Z,12.42
2022-10-19T04:51:14.896Z,12.40
2022-10-19T04:52:14.656Z,12.39
2022-10-19T04:53:14.918Z,12.38
2022-10-19T04:54:14.747Z,12.35
2022-10-19T04:55:14.956Z,12.35
2022-10-19T04:56:14.068Z,12.32
2022-10-19T04:57:14.881Z,12.32
2022-10-19T04:58:14.827Z,12.30
2022-10-19T04:59:14.088Z,12.28
2022-10-19T05:00:14.686Z,12.30
2022-10-19T05:01:14.852Z,12.30
2022-10-19T05:02:14.827Z,12.30
2022-10-19T05:03:14.746Z,12.33
2022-10-19T05:04:14.646Z,12.33
2022-10-19T05:05:13.903Z,12.30
2022-10-19T05:06:14.708Z,12.33
2022-10-19T05:07:14.566Z,12.33
2022-10-19T05:08:14.690Z,12.32
2022-10-19T05:09:14.457Z,12.33
2022-10-19T05:10:14.659Z,12.33
2022-10-19T05:11:14.526Z,12.36
2022-10-19T05:12:14.804Z,12.36
2022-10-19T05:13:14.591Z,12.38
2022-10-19T05:14:15.083Z,12.42
2022-10-19T05:15:14.496Z,12.42
2022-10-19T05:16:14.686Z,12.42
2022-10-19T05:17:14.502Z,12.43
2022-10-19T05:18:14.586Z,12.43
2022-10-19T05:19:14.471Z,12.46
2022-10-19T05:20:14.536Z,12.50
2022-10-19T05:21:14.521Z,12.51
2022-10-19T05:22:14.606Z,12.54
2022-10-19T05:23:14.526Z,12.57
2022-10-19T05:24:14.346Z,12.57
2022-10-19T05:25:14.495Z,12.60
2022-10-19T05:26:14.379Z,12.61
2022-10-19T05:27:14.567Z,12.60
2022-10-19T05:28:14.298Z,12.58
2022-10-19T05:29:14.516Z,12.60
2022-10-19T05:30:14.437Z,12.61
2022-10-19T05:31:14.459Z,12.69
2022-10-19T05:32:14.647Z,12.72
2022-10-19T05:33:14.504Z,12.76
2022-10-19T05:34:14.388Z,12.82
2022-10-19T05:35:17.450Z,12.91
2022-10-19T05:36:14.329Z,12.96
2022-10-19T05:37:14.394Z,13.01
2022-10-19T05:38:14.356Z,13.03
2022-10-19T05:39:14.266Z,13.08
2022-10-19T05:40:14.828Z,13.05
2022-10-19T05:41:14.217Z,13.06
2022-10-19T05:42:14.317Z,13.11
2022-10-19T05:43:14.252Z,13.13
2022-10-19T05:44:14.316Z,13.19
2022-10-19T05:45:14.227Z,13.22
2022-10-19T05:46:14.513Z,13.26
2022-10-19T05:47:14.177Z,13.26
2022-10-19T05:48:14.265Z,13.29
2022-10-19T05:49:14.188Z,13.30
2022-10-19T05:50:14.276Z,13.31
2022-10-19T05:51:14.348Z,13.31
2022-10-19T05:52:14.276Z,13.31
2022-10-19T05:53:14.245Z,13.31
2022-10-19T05:54:14.200Z,13.31
2022-10-19T05:55:14.198Z,13.29
2022-10-19T05:56:14.017Z,13.29
2022-10-19T05:57:14.299Z,13.31
2022-10-19T05:58:13.999Z,13.31
2022-10-19T05:59:14.188Z,13.38
2022-10-19T06:00:14.006Z,13.43
2022-10-19T06:01:14.226Z,13.47
2022-10-19T06:02:14.019Z,13.52
2022-10-19T06:03:14.207Z,13.52
2022-10-19T06:04:14.125Z,13.53
2022-10-19T06:05:14.086Z,13.63
2022-10-19T06:06:14.030Z,13.70
2022-10-19T06:07:14.153Z,13.77
2022-10-19T06:08:14.178Z,13.83
2022-10-19T06:09:13.817Z,13.86
2022-10-19T06:10:14.056Z,13.86
2022-10-19T06:11:13.856Z,13.85
2022-10-19T06:12:15.810Z,13.85
2022-10-19T06:13:13.949Z,13.86
2022-10-19T06:14:14.066Z,13.89
2022-10-19T06:15:13.966Z,13.86
2022-10-19T06:16:13.996Z,13.88
2022-10-19T06:17:13.973Z,13.89
2022-10-19T06:18:13.956Z,13.88
2022-10-19T06:19:13.877Z,13.90
2022-10-19T06:20:14.127Z,13.93
2022-10-19T06:21:13.838Z,13.95
2022-10-19T06:22:13.937Z,14.00
2022-10-19T06:23:13.826Z,14.04
2022-10-19T06:24:13.936Z,14.07
2022-10-19T06:25:17.965Z,14.10
2022-10-19T06:26:14.128Z,14.11
2022-10-19T06:27:14.023Z,14.13
2022-10-19T06:28:13.698Z,14.10
2022-10-19T06:29:13.867Z,14.15
2022-10-19T06:30:13.866Z,14.19
2022-10-19T06:31:14.238Z,14.23
2022-10-19T06:32:13.837Z,14.26
2022-10-19T06:33:13.866Z,14.30
2022-10-19T06:34:13.976Z,14.26
2022-10-19T06:35:13.868Z,14.29
2022-10-19T06:36:13.728Z,14.37
2022-10-19T06:37:13.736Z,14.41
2022-10-19T06:38:13.677Z,14.50
2022-10-19T06:39:13.897Z,14.58
2022-10-19T06:40:13.822Z,14.63
2022-10-19T06:41:13.637Z,14.69
2022-10-19T06:42:13.756Z,14.69
2022-10-19T06:43:13.539Z,14.73
2022-10-19T06:44:13.777Z,14.81
2022-10-19T06:45:13.477Z,14.82
2022-10-19T06:46:13.707Z,14.88
2022-10-19T06:47:13.536Z,14.88
2022-10-19T06:48:13.686Z,14.95
2022-10-19T06:49:13.528Z,15.00
2022-10-19T06:50:13.838Z,15.09
2022-10-19T06:51:13.547Z,15.15
2022-10-19T06:52:13.739Z,15.21
2022-10-19T06:53:13.628Z,15.30
2022-10-19T06:54:13.687Z,15.37
2022-10-19T06:55:13.525Z,15.44
2022-10-19T06:56:13.386Z,15.48
2022-10-19T06:57:13.500Z,15.50
2022-10-19T06:58:13.457Z,15.54
2022-10-19T06:59:14.831Z,15.60
2022-10-19T07:00:13.338Z,15.70
2022-10-19T07:01:13.559Z,15.79
2022-10-19T07:02:13.386Z,15.91
2022-10-19T07:03:13.497Z,15.91
2022-10-19T07:04:13.561Z,16.06
2022-10-19T07:05:13.508Z,16.17
2022-10-19T07:06:13.977Z,16.26
2022-10-19T07:07:13.626Z,16.36
2022-10-19T07:08:13.438Z,16.47
2022-10-19T07:09:13.626Z,16.54
2022-10-19T07:10:13.558Z,16.50
2022-10-19T07:11:13.187Z,16.61
2022-10-19T07:12:13.746Z,16.74
2022-10-19T07:13:13.230Z,16.80
2022-10-19T07:14:13.397Z,16.87
2022-10-19T07:15:13.408Z,16.82
2022-10-19T07:16:16.155Z,16.93
2022-10-19T07:17:13.238Z,17.01
2022-10-19T07:18:12.556Z,17.08
2022-10-19T07:19:13.236Z,17.20
2022-10-19T07:20:12.516Z,17.29
2022-10-19T07:21:13.287Z,17.35
2022-10-19T07:22:17.360Z,17.29
2022-10-19T07:23:14.319Z,17.23
2022-10-19T07:24:13.498Z,17.30
2022-10-19T07:25:13.257Z,17.35
2022-10-19T07:26:13.117Z,17.27
2022-10-19T07:27:13.347Z,17.35
2022-10-19T07:28:13.197Z,17.45
2022-10-19T07:29:13.986Z,17.60
2022-10-19T07:30:13.627Z,17.68
2022-10-19T07:31:13.217Z,17.86
2022-10-19T07:32:13.027Z,17.89
2022-10-19T07:33:13.753Z,18.07
2022-10-19T07:34:13.086Z,18.10
2022-10-19T07:35:13.159Z,18.13
2022-10-19T07:36:13.630Z,18.12
2022-10-19T07:37:13.163Z,18.22
2022-10-19T07:38:13.039Z,18.31
2022-10-19T07:39:13.186Z,18.16
2022-10-19T07:40:13.327Z,17.78
2022-10-19T07:41:13.506Z,17.67
2022-10-19T07:42:13.096Z,17.82
2022-10-19T07:43:13.076Z,17.97
2022-10-19T07:44:15.591Z,18.01
2022-10-19T07:45:12.946Z,17.93
2022-10-19T07:46:13.022Z,17.93
2022-10-19T07:47:12.940Z,17.93
2022-10-19T07:48:13.086Z,17.94
2022-10-19T07:49:12.887Z,18.01
2022-10-19T07:50:13.077Z,18.09
2022-10-19T07:51:12.906Z,18.13
2022-10-19T07:52:12.976Z,18.31
2022-10-19T07:53:12.977Z,18.34
2022-10-19T07:54:12.937Z,18.41
2022-10-19T07:55:12.928Z,18.44
2022-10-19T07:56:13.036Z,18.33
2022-10-19T07:57:12.911Z,18.30
2022-10-19T07:58:12.738Z,18.20
2022-10-19T07:59:12.848Z,18.07
2022-10-19T08:00:12.766Z,17.98
2022-10-19T08:01:12.888Z,17.89
2022-10-19T08:02:12.901Z,17.83
2022-10-19T08:04:55.446Z,17.67
2022-10-19T08:05:13.919Z,17.48
2022-10-19T08:06:13.217Z,17.46
2022-10-19T08:07:12.859Z,17.56
2022-10-19T08:08:12.886Z,17.60
2022-10-19T08:09:23.012Z,17.57
2022-10-19T08:10:13.497Z,17.56
2022-10-19T08:11:13.007Z,17.39
2022-10-19T08:12:15.526Z,17.49
2022-10-19T08:13:12.546Z,17.53
2022-10-19T08:14:12.808Z,17.60
2022-10-19T08:15:12.737Z,17.73
2022-10-19T08:16:13.635Z,17.82
2022-10-19T08:17:12.577Z,17.88
2022-10-19T08:18:12.706Z,17.97
2022-10-19T08:19:12.758Z,18.04
2022-10-19T08:20:13.026Z,18.13
2022-10-19T08:21:12.646Z,18.19
2022-10-19T08:22:12.803Z,18.26
2022-10-19T08:23:12.707Z,18.31
2022-10-19T08:24:12.668Z,18.33
2022-10-19T08:25:12.717Z,18.48
2022-10-19T08:26:12.678Z,18.60
2022-10-19T08:27:12.766Z,18.67
2022-10-19T08:28:12.657Z,18.83
2022-10-19T08:29:12.687Z,18.85
2022-10-19T08:30:12.387Z,18.89
2022-10-19T08:31:12.668Z,19.00
2022-10-19T08:32:12.646Z,18.98
2022-10-19T08:33:12.546Z,18.89
2022-10-19T08:34:12.446Z,18.81
2022-10-19T08:35:12.747Z,18.74
2022-10-19T08:36:12.367Z,18.62
2022-10-19T08:37:26.060Z,18.53
2022-10-19T08:38:13.056Z,18.50
2022-10-19T08:39:12.520Z,18.55
2022-10-19T08:40:12.527Z,18.55
2022-10-19T08:41:12.546Z,18.56
2022-10-19T08:45:02.407Z,19.27
2022-10-19T08:46:21.246Z,19.39
2022-10-19T08:47:02.410Z,19.44
2022-10-19T08:48:21.587Z,19.52
2022-10-19T08:49:00.325Z,19.59
2022-10-19T08:50:22.477Z,19.51
2022-10-19T08:50:59.827Z,19.74
2022-10-19T08:52:21.066Z,19.79
2022-10-19T08:52:59.757Z,19.78
2022-10-19T08:54:21.638Z,19.79
2022-10-19T08:54:59.807Z,19.70
2022-10-19T08:56:45.966Z,19.71
2022-10-19T08:56:59.137Z,19.94
2022-10-19T08:58:21.936Z,19.89
2022-10-19T08:58:59.776Z,20.17
2022-10-19T09:00:21.563Z,20.69
2022-10-19T09:00:59.748Z,20.93
2022-10-19T09:02:21.690Z,20.93
2022-10-19T09:02:59.265Z,21.05
2022-10-19T09:04:22.507Z,20.74
2022-10-19T09:04:59.847Z,20.62
2022-10-19T09:06:21.521Z,20.37
2022-10-19T09:06:59.816Z,20.40
2022-10-19T09:08:20.857Z,20.56
2022-10-19T09:08:59.972Z,20.82
2022-10-19T09:10:22.646Z,21.14
2022-10-19T09:11:00.338Z,21.15
2022-10-19T09:12:20.948Z,21.32
2022-10-19T09:12:59.758Z,22.40
2022-10-19T09:14:21.518Z,22.30
2022-10-19T09:14:59.789Z,22.43
2022-10-19T09:16:21.677Z,22.73
2022-10-19T09:17:00.037Z,22.96
2022-10-19T09:18:21.288Z,24.25
2022-10-19T09:18:59.687Z,24.74
2022-10-19T09:20:21.468Z,25.73
2022-10-19T09:20:59.658Z,27.08
2022-10-19T09:22:22.098Z,28.07
2022-10-19T09:22:59.397Z,28.98
2022-10-19T09:24:21.006Z,29.21
2022-10-19T09:25:00.501Z,29.04
2022-10-19T22:54:57.229Z,7.00
2022-10-19T22:58:38.658Z,6.92
2022-10-19T22:59:18.306Z,6.88
2022-10-19T23:00:18.199Z,6.88
2022-10-19T23:01:18.012Z,6.83
2022-10-19T23:02:18.228Z,6.75
2022-10-19T23:03:18.007Z,6.78
2022-10-19T23:04:18.209Z,6.80
2022-10-19T23:05:17.987Z,6.83
2022-10-19T23:06:17.363Z,6.81
2022-10-19T23:07:18.005Z,6.67
2022-10-19T23:08:18.093Z,6.66
2022-10-19T23:09:18.056Z,6.63
2022-10-19T23:10:18.183Z,6.63
2022-10-19T23:11:18.173Z,6.55
2022-10-19T23:12:18.133Z,6.53
2022-10-19T23:13:17.973Z,6.55
2022-10-19T23:14:18.155Z,6.55
2022-10-19T23:15:18.024Z,6.55
2022-10-19T23:16:17.995Z,6.56
2022-10-19T23:17:18.006Z,6.57
2022-10-19T23:18:17.894Z,6.57
2022-10-19T23:19:18.053Z,6.55
2022-10-19T23:20:17.814Z,6.53
2022-10-19T23:21:18.007Z,6.53
2022-10-19T23:22:17.873Z,6.53
2022-10-19T23:23:18.214Z,6.56
2022-10-19T23:24:17.884Z,6.57
2022-10-19T23:25:17.934Z,6.59
2022-10-19T23:26:17.893Z,6.60
2022-10-19T23:27:18.163Z,6.56
2022-10-19T23:28:17.834Z,6.57
2022-10-19T23:29:18.008Z,6.56
2022-10-19T23:30:17.843Z,6.49
2022-10-19T23:31:17.883Z,6.48
2022-10-19T23:32:17.853Z,6.47
2022-10-19T23:33:17.704Z,6.44
2022-10-19T23:34:17.909Z,6.44
2022-10-19T23:35:17.665Z,6.44
2022-10-19T23:36:17.913Z,6.47
2022-10-19T23:37:17.694Z,6.48
2022-10-19T23:38:17.844Z,6.49
2022-10-19T23:39:17.714Z,6.66
2022-10-19T23:40:17.824Z,6.80
2022-10-19T23:41:17.653Z,6.84
2022-10-19T23:42:17.804Z,6.92
2022-10-19T23:43:17.714Z,7.00
2022-10-19T23:44:18.026Z,7.03
2022-10-19T23:45:17.705Z,7.08
2022-10-19T23:46:17.813Z,7.10
2022-10-19T23:47:17.884Z,7.05
2022-10-19T23:48:17.534Z,7.07
2022-10-19T23:49:17.694Z,7.05
2022-10-19T23:50:17.493Z,7.07
2022-10-19T23:51:17.734Z,7.00
2022-10-19T23:52:17.545Z,6.96
2022-10-19T23:53:17.664Z,6.92
2022-10-19T23:54:17.563Z,6.85
2022-10-19T23:55:17.695Z,6.75
2022-10-19T23:56:17.507Z,6.67
2022-10-19T23:57:17.692Z,6.59
2022-10-19T23:58:17.615Z,6.56
2022-10-19T23:59:17.685Z,6.53
